Impacts TAF Board
For situational awareness. Not to be used for flight planning purposes.
IDs:

KBWI - Baltimore-Washington, MD, US

Issued at 0833 UTC 15 Dec 2018
Updated at 1100 UTC 15 Dec 2018
Potential Impact None Slight Moderate High
Time1054Z 15/11Z 15/12Z 15/13Z 15/14Z 15/15Z 15/16Z 15/17Z 15/18Z 15/19Z 15/20Z 15/21Z 15/22Z 15/23Z>>
Type OBS PRVL PRVL PRVL PRVL PRVL PRVL PRVL PRVL PRVL PRVL PRVL PRVL PRVL
VIS 2 1.5 1.5 1.5 1.5 1.5 1.5 1.5 1 1 1 1 1 1
CIG 4 3 3 3 3 3 3 3 3 3 3 3 3 3
Cover OVC OVC OVC OVC OVC OVC OVC OVC OVC OVC OVC OVC OVC OVC
FltCat LIFR LIFR LIFR LIFR LIFR LIFR LIFR LIFR LIFR LIFR LIFR LIFR LIFR LIFR
WX -RA BR -RA BR -RA BR -RA BR -RA BR -RA BR -RA BR -RA BR -RA -RA -RA -RA -RA -RA
WDir 50 40 40 40 40 40 40 40 50 50 50 50 50 50
WSpd 8 6 6 6 6 6 6 6 8 8 8 8 8 8
WGst -- -- -- -- -- -- -- -- -- -- -- -- -- --
Raw TAF
KBWI 150833Z 1509/1612 04006KT 1 1/2SM -RA BR OVC003
  FM151800 05008KT 1SM -RA BKN003 OVC010
  FM160000 06010G18KT 1 1/2SM -RA BR BKN003 OVC010
  FM160600 06009KT 1SM -RA BR BKN008 OVC010
  FM160900 05010KT 1 1/2SM -RA BR BKN003 OVC010


Raw METAR
KBWI 151054Z 05008KT 2SM -RA BR OVC004 09/09 A3006 RMK AO2 SLP180 P0008 T00940094
KBWI 150954Z 04006KT 2 1/2SM -RA BR OVC003 09/09 A3009 RMK AO2 SLP189 P0002 T00940094
KBWI 150854Z 03007KT 2 1/2SM -RA BR BKN004 OVC015 09/09 A3011 RMK AO2 SLP195 P0006 60012 T00890089 58021
KBWI 150837Z 03006KT 2SM -RA BR BKN004 OVC015 09/09 A3012 RMK AO2 P0006 T00890089
KBWI 150754Z 02005KT 1 1/4SM RA BR OVC003 09/09 A3014 RMK AO2 RAB0658 SLP206 P0006 T00940089
KBWI 150742Z 04006KT 1 1/4SM RA BR OVC003 09/09 A3014 RMK AO2 RAB0658 P0004 T00940094

METAR Board
Radar Display
Forecast Discussion
For situational awareness. Not to be used for flight planning purposes.